Time;durP1;ratioP1;P1;durP2;ratioP2;P2;SDS_P1;SDS_P2;PMS_P1;PMS_P2;Temp;Humidity;BMP_temperature;BMP_pressure;BME280_temperature;BME280_humidity;BME280_pressure;Samples;Min_cycle;Max_cycle;Signal;HPM_P1;HPM_P2
2022/04/01 00:02:23;;;;;;;12.80;6.70;;;;;;;0.86;90.05;98774.84;5034987;28;20372;-79
2022/04/01 00:04:48;;;;;;;11.55;5.07;;;;;;;0.82;89.99;98776.22;5035641;28;20481;-79
2022/04/01 00:07:14;;;;;;;9.43;5.00;;;;;;;0.81;89.94;98777.22;5035071;28;20033;-78
2022/04/01 00:09:39;;;;;;;12.48;5.60;;;;;;;0.80;89.92;98772.91;5035891;28;20030;-79
2022/04/01 00:12:06;;;;;;;9.75;4.85;;;;;;;0.85;89.92;98783.81;5036623;28;20116;-78
2022/04/01 00:14:31;;;;;;;9.70;5.00;;;;;;;0.83;89.38;98785.81;5035351;28;20125;-79
2022/04/01 00:16:57;;;;;;;11.35;5.38;;;;;;;0.75;89.50;98788.53;5039676;28;20502;-79
2022/04/01 00:19:23;;;;;;;10.40;4.38;;;;;;;0.81;89.30;98798.41;5043021;28;20034;-79
2022/04/01 00:21:48;;;;;;;9.30;4.20;;;;;;;0.83;89.66;98790.28;5044002;28;20472;-79
2022/04/01 00:24:14;;;;;;;10.27;4.78;;;;;;;0.84;89.12;98792.75;5044438;28;20040;-80
2022/04/01 00:26:40;;;;;;;10.82;5.20;;;;;;;0.79;89.27;98791.66;5043234;28;20030;-79
2022/04/01 00:29:14;;;;;;;8.75;4.22;;;;;;;0.82;89.97;98786.81;5044028;28;20033;-79
2022/04/01 00:31:42;;;;;;;7.82;4.05;;;;;;;0.78;89.53;98804.09;5042546;28;20029;-79
2022/04/01 00:34:16;;;;;;;8.57;3.78;;;;;;;0.78;90.01;98795.31;5043794;28;20453;-77
2022/04/01 00:36:47;;;;;;;7.60;4.15;;;;;;;0.78;89.46;98797.97;5043347;28;20025;-79
2022/04/01 00:39:14;;;;;;;7.60;3.55;;;;;;;0.77;89.29;98807.75;5043592;28;20033;-80
2022/04/01 00:41:40;;;;;;;13.25;4.30;;;;;;;0.74;89.19;98799.31;5042579;28;20045;-79
2022/04/01 00:44:15;;;;;;;8.65;4.43;;;;;;;0.71;89.19;98805.00;5043372;28;20025;-78
2022/04/01 00:46:49;;;;;;;9.10;4.32;;;;;;;0.76;89.98;98800.78;5042796;28;20026;-78
2022/04/01 00:49:15;;;;;;;8.18;3.35;;;;;;;0.83;89.33;98804.38;5042011;28;20490;-79
2022/04/01 00:51:43;;;;;;;7.80;4.13;;;;;;;0.64;89.14;98808.38;5040227;28;20189;-79
2022/04/01 00:54:09;;;;;;;9.50;4.78;;;;;;;0.72;89.36;98815.41;5040943;28;20041;-78
2022/04/01 00:56:35;;;;;;;9.13;4.18;;;;;;;0.75;89.13;98806.25;5042143;28;20029;-79
2022/04/01 00:59:02;;;;;;;12.10;3.92;;;;;;;0.71;88.61;98805.84;5041112;28;20076;-79
2022/04/01 01:01:30;;;;;;;8.90;3.88;;;;;;;0.65;88.73;98814.50;5040739;28;20033;-79
2022/04/01 01:03:55;;;;;;;9.27;4.47;;;;;;;0.66;88.99;98803.72;5041320;28;20026;-79
2022/04/01 01:06:21;;;;;;;7.45;4.35;;;;;;;0.77;89.75;98821.00;5040023;28;20032;-79
2022/04/01 01:08:47;;;;;;;;;;;;;;;0.67;89.18;98813.31;5039385;28;20033;-79
2022/04/01 01:11:14;;;;;;;9.30;4.27;;;;;;;0.63;89.44;98819.97;5040061;28;20379;-79
2022/04/01 01:13:40;;;;;;;5.72;3.17;;;;;;;0.64;89.04;98820.81;5039805;28;20302;-78
2022/04/01 01:16:07;;;;;;;9.77;3.45;;;;;;;0.57;89.45;98818.03;5039597;28;20033;-79
2022/04/01 01:18:35;;;;;;;6.93;3.65;;;;;;;0.61;90.11;98819.31;5041100;28;20108;-79
2022/04/01 01:21:01;;;;;;;11.18;4.50;;;;;;;0.58;89.47;98818.88;5040617;28;20037;-79
2022/04/01 01:23:29;;;;;;;9.18;4.05;;;;;;;0.61;89.09;98821.16;5040656;28;20389;-78
2022/04/01 01:25:54;;;;;;;7.22;3.47;;;;;;;0.58;89.37;98822.34;5039880;28;20052;-79
2022/04/01 01:28:21;;;;;;;8.98;4.65;;;;;;;0.62;89.46;98820.97;5041598;28;20464;-78
2022/04/01 01:30:47;;;;;;;7.85;3.60;;;;;;;0.62;89.27;98820.16;5040729;28;20056;-80
2022/04/01 01:33:13;;;;;;;6.85;3.30;;;;;;;0.53;88.69;98815.94;5040337;28;20029;-79
2022/04/01 01:35:38;;;;;;;7.20;3.22;;;;;;;0.47;88.68;98816.66;5040351;28;20050;-79
2022/04/01 01:38:04;;;;;;;8.27;3.60;;;;;;;0.43;89.42;98824.13;5039454;28;20040;-79
2022/04/01 01:40:30;;;;;;;11.93;4.18;;;;;;;0.48;89.12;98823.59;5041212;28;20034;-79
2022/04/01 01:42:55;;;;;;;7.97;2.85;;;;;;;0.48;89.05;98815.66;5041333;28;20059;-78
2022/04/01 01:45:21;;;;;;;7.90;3.50;;;;;;;0.38;88.62;98815.06;5039241;28;20046;-79
2022/04/01 01:47:46;;;;;;;8.73;3.05;;;;;;;0.35;88.59;98818.94;5038759;28;20033;-79
2022/04/01 01:55:39;;;;;;;7.80;3.50;;;;;;;0.39;88.99;98814.88;5037976;28;20064;-79
2022/04/01 01:58:05;;;;;;;7.18;2.88;;;;;;;0.30;89.00;98819.44;5020490;28;20030;-78
2022/04/01 02:00:31;;;;;;;7.05;3.22;;;;;;;0.31;89.14;98818.44;5038973;28;20037;-78
2022/04/01 02:02:56;;;;;;;6.22;2.83;;;;;;;0.29;89.06;98823.09;5040504;28;20452;-79
2022/04/01 02:05:22;;;;;;;6.20;2.70;;;;;;;0.35;89.23;98813.63;5022696;28;20056;-79
2022/04/01 02:07:47;;;;;;;6.65;2.55;;;;;;;0.36;88.63;98815.25;5039876;28;20248;-78
2022/04/01 02:10:14;;;;;;;4.17;1.77;;;;;;;0.28;88.73;98810.84;5022442;28;20048;-79
2022/04/01 02:12:41;;;;;;;4.88;2.50;;;;;;;0.27;89.29;98816.31;5040244;28;20292;-79
2022/04/01 02:15:10;;;;;;;6.50;2.42;;;;;;;0.29;88.86;98819.63;5042098;28;20025;-78
2022/04/01 02:17:40;;;;;;;4.70;2.15;;;;;;;0.25;89.12;98819.16;5040502;28;20044;-78
2022/04/01 02:20:09;;;;;;;4.15;2.10;;;;;;;0.23;89.23;98820.31;5042728;28;20029;-78
2022/04/01 02:22:38;;;;;;;6.00;2.22;;;;;;;0.25;89.16;98821.81;5052054;28;20033;-79
2022/04/01 02:25:05;;;;;;;6.28;3.03;;;;;;;0.27;88.98;98825.09;5040756;28;20514;-79
2022/04/01 02:27:30;;;;;;;5.50;2.47;;;;;;;0.28;88.76;98828.56;5038660;28;20025;-78
2022/04/01 02:29:57;;;;;;;5.72;2.30;;;;;;;0.28;88.60;98817.97;5038607;28;20384;-78
2022/04/01 02:32:23;;;;;;;5.78;2.05;;;;;;;0.23;88.45;98822.97;5037055;28;20116;-79
2022/04/01 02:34:49;;;;;;;4.68;1.83;;;;;;;0.24;88.56;98832.56;5039679;28;20456;-80
2022/04/01 02:37:15;;;;;;;;;;;;;;;0.25;88.00;98829.75;5040975;28;20064;-79
2022/04/01 02:39:41;;;;;;;4.50;2.17;;;;;;;0.22;87.43;98846.00;5039125;28;19908;-79
2022/04/01 02:42:06;;;;;;;4.00;2.00;;;;;;;0.22;88.41;98851.28;5039385;28;20045;-79
2022/04/01 02:44:33;;;;;;;4.22;2.03;;;;;;;0.22;87.75;98846.00;5038334;28;20279;-79
2022/04/01 02:46:58;;;;;;;4.55;2.25;;;;;;;0.24;87.86;98856.41;5038573;28;20034;-78
2022/04/01 02:49:24;;;;;;;3.78;1.67;;;;;;;0.22;87.84;98859.25;5037726;28;20036;-79
2022/04/01 02:51:50;;;;;;;;;;;;;;;0.24;87.66;98853.75;5038397;28;20025;-79
2022/04/01 02:54:15;;;;;;;5.60;2.55;;;;;;;0.26;87.38;98859.72;5035820;28;19985;-79
2022/04/01 02:56:41;;;;;;;3.90;2.20;;;;;;;0.16;87.56;98867.09;5037735;28;20064;-79
2022/04/01 02:59:08;;;;;;;3.90;1.88;;;;;;;0.17;87.00;98861.63;5037271;28;20037;-79
2022/04/01 03:01:38;;;;;;;6.97;1.92;;;;;;;0.20;86.84;98869.19;5037167;28;20514;-79
2022/04/01 03:04:11;;;;;;;4.97;2.45;;;;;;;0.18;87.19;98873.81;5038157;28;20083;-79
2022/04/01 03:06:38;;;;;;;2.92;1.40;;;;;;;0.22;86.90;98872.47;5038163;28;20052;-80
2022/04/01 03:09:07;;;;;;;4.93;2.15;;;;;;;0.21;86.94;98873.47;5037843;28;20037;-78
2022/04/01 03:11:32;;;;;;;3.67;1.90;;;;;;;0.19;87.33;98880.78;5037188;28;20025;-79
2022/04/01 03:13:58;;;;;;;3.45;1.85;;;;;;;0.18;86.32;98876.47;5036704;28;20057;-78
2022/04/01 03:16:24;;;;;;;6.05;2.13;;;;;;;0.19;87.03;98878.13;5037498;28;20053;-79
2022/04/01 03:18:50;;;;;;;3.65;1.42;;;;;;;0.20;86.83;98876.31;5019418;28;20040;-80
2022/04/01 03:21:15;;;;;;;3.25;1.85;;;;;;;0.18;86.33;98884.41;5019301;28;20033;-79
2022/04/01 03:23:43;;;;;;;5.40;2.00;;;;;;;0.18;86.64;98887.06;5038610;28;20030;-80
2022/04/01 03:26:09;;;;;;;4.20;2.00;;;;;;;0.20;86.54;98890.38;5036226;28;20108;-79
2022/04/01 03:28:35;;;;;;;4.45;1.92;;;;;;;0.21;86.68;98889.38;5038819;28;20060;-79
2022/04/01 03:31:06;;;;;;;4.15;2.08;;;;;;;0.23;86.92;98895.31;5038498;28;20032;-79
2022/04/01 03:33:33;;;;;;;4.25;2.08;;;;;;;0.25;86.33;98901.28;5037825;28;20029;-79
2022/04/01 03:35:59;;;;;;;3.97;1.90;;;;;;;0.22;86.82;98900.78;5036940;28;20037;-79
2022/04/01 03:38:25;;;;;;;5.30;2.05;;;;;;;0.20;86.12;98897.50;5036951;28;20347;-80
2022/04/01 03:40:51;;;;;;;4.95;2.22;;;;;;;0.18;87.16;98902.97;5037161;28;20041;-79
2022/04/01 03:43:20;;;;;;;3.90;1.90;;;;;;;0.18;87.05;98913.56;5019956;28;20033;-78
2022/04/01 03:45:49;;;;;;;4.47;2.20;;;;;;;0.14;87.19;98914.94;5037844;28;20053;-79
2022/04/01 03:48:31;;;;;;;3.85;1.60;;;;;;;0.21;87.00;98913.22;5036723;28;20032;-79
2022/04/01 03:50:58;;;;;;;3.95;2.33;;;;;;;0.12;86.71;98922.22;5017515;28;20392;-78
2022/04/01 03:53:29;;;;;;;3.97;1.92;;;;;;;0.11;87.14;98919.75;5036297;28;20048;-78
2022/04/01 03:55:59;;;;;;;3.78;1.95;;;;;;;0.09;87.34;98922.56;5036008;28;20056;-78
2022/04/01 03:58:32;;;;;;;4.30;1.70;;;;;;;0.11;87.33;98928.50;5036030;28;20517;-78
2022/04/01 04:00:59;;;;;;;5.90;2.00;;;;;;;0.05;87.29;98936.31;5035079;28;20066;-77
2022/04/01 04:03:25;;;;;;;5.63;2.03;;;;;;;0.11;87.62;98936.47;5034480;28;20029;-77
2022/04/01 04:05:51;;;;;;;3.70;1.80;;;;;;;0.09;87.45;98941.09;5016374;28;20033;-77
2022/04/01 04:08:18;;;;;;;;;;;;;;;0.08;87.73;98944.75;5034921;28;20029;-77
2022/04/01 04:10:46;;;;;;;6.22;2.17;;;;;;;0.10;87.71;98941.94;5034902;28;19959;-77
2022/04/01 04:13:12;;;;;;;3.40;1.38;;;;;;;0.10;87.51;98952.53;5016006;28;20095;-76
2022/04/01 04:15:50;;;;;;;4.15;1.77;;;;;;;0.05;86.98;98938.97;5033979;28;20029;-79
2022/04/01 04:18:18;;;;;;;3.83;1.63;;;;;;;0.01;87.33;98949.06;5016085;28;20464;-76
2022/04/01 04:20:59;;;;;;;3.90;1.85;;;;;;;0.05;87.43;98941.63;5033824;28;20025;-76
2022/04/01 04:23:38;;;;;;;4.18;1.80;;;;;;;0.03;86.78;98957.69;5033939;28;20448;-75
2022/04/01 04:26:15;;;;;;;3.55;1.70;;;;;;;0.00;86.46;98948.25;5033392;28;20041;-77
2022/04/01 04:28:51;;;;;;;5.47;1.65;;;;;;;-0.03;86.99;98953.94;5032959;28;20079;-77
2022/04/01 04:31:23;;;;;;;;;;;;;;;0.00;86.12;98958.84;5016125;28;20021;-78
2022/04/01 04:33:54;;;;;;;3.30;1.70;;;;;;;-0.02;86.69;98960.03;5034312;28;19943;-78
2022/04/01 04:36:25;;;;;;;2.75;1.25;;;;;;;0.01;86.40;98967.63;5034150;28;20033;-78
2022/04/01 04:38:53;;;;;;;4.05;2.00;;;;;;;0.00;85.92;98966.78;5034120;28;20543;-77
2022/04/01 04:41:21;;;;;;;3.40;1.40;;;;;;;-0.01;86.02;98977.59;5034354;28;20038;-78
2022/04/01 04:43:50;;;;;;;3.78;2.10;;;;;;;-0.04;86.03;98975.28;5034267;28;20460;-78
2022/04/01 04:46:17;;;;;;;4.53;1.75;;;;;;;-0.05;86.33;98977.09;5034411;28;20034;-77
2022/04/01 04:48:46;;;;;;;4.60;1.90;;;;;;;-0.02;85.78;98979.41;5033950;28;20441;-77
2022/04/01 04:51:12;;;;;;;4.30;1.92;;;;;;;-0.03;86.18;98972.47;5034770;28;20036;-77
2022/04/01 04:53:39;;;;;;;4.32;2.00;;;;;;;0.05;86.23;98984.00;5034535;28;20030;-77
2022/04/01 04:56:05;;;;;;;7.57;2.63;;;;;;;0.02;86.07;98984.34;5016415;28;20083;-77
2022/04/01 04:58:34;;;;;;;3.75;1.58;;;;;;;0.03;85.81;98991.28;5033580;28;20037;-77
2022/04/01 05:01:08;;;;;;;3.55;1.60;;;;;;;-0.06;85.80;98988.69;5033439;28;20033;-77
2022/04/01 05:03:56;;;;;;;3.97;1.60;;;;;;;0.02;85.96;98998.41;5037131;28;20115;-78
2022/04/01 05:06:27;;;;;;;4.32;1.70;;;;;;;-0.07;86.11;99000.25;5037207;28;20487;-78
2022/04/01 05:09:03;;;;;;;2.80;1.48;;;;;;;-0.07;85.13;99000.25;5037313;28;20071;-77
2022/04/01 05:11:48;;;;;;;4.28;1.98;;;;;;;-0.07;85.20;99008.22;5018864;28;20056;-76
2022/04/01 05:14:38;;;;;;;3.92;1.73;;;;;;;-0.04;85.06;98999.09;5037241;28;20187;-78
2022/04/01 05:17:07;;;;;;;3.78;1.33;;;;;;;0.02;85.11;99014.28;5037514;28;20087;-78
2022/04/01 05:19:36;;;;;;;3.67;1.40;;;;;;;-0.03;84.76;99016.66;5037167;28;20108;-78
2022/04/01 05:22:06;;;;;;;5.80;1.70;;;;;;;-0.03;85.30;99016.66;5019753;28;20452;-78
2022/04/01 05:24:38;;;;;;;4.57;1.95;;;;;;;-0.10;85.52;99018.31;5039788;28;20021;-78
2022/04/01 05:27:06;;;;;;;5.03;1.77;;;;;;;0.03;85.24;99031.00;5045377;28;20060;-78
2022/04/01 05:29:37;;;;;;;2.97;1.42;;;;;;;0.00;84.34;99027.69;5045107;28;20033;-77
2022/04/01 05:32:07;;;;;;;6.28;2.20;;;;;;;-0.05;85.04;99023.94;5044602;28;20025;-77
2022/04/01 05:34:37;;;;;;;4.35;1.90;;;;;;;-0.02;84.45;99035.00;5045184;28;20036;-77
2022/04/01 05:37:03;;;;;;;4.68;1.83;;;;;;;-0.03;84.12;99040.47;5042450;28;20032;-78
2022/04/01 05:39:29;;;;;;;6.13;2.20;;;;;;;-0.04;84.27;99041.47;5043034;28;20033;-77
2022/04/01 05:41:55;;;;;;;4.13;1.73;;;;;;;0.03;84.07;99054.84;5043100;28;20045;-77
2022/04/01 05:44:22;;;;;;;5.20;2.15;;;;;;;0.00;83.96;99050.72;5025744;28;20029;-77
2022/04/01 05:46:48;;;;;;;;;;;;;;;-0.06;83.97;99051.41;5043512;28;20039;-77
2022/04/01 05:49:15;;;;;;;6.70;2.20;;;;;;;-0.08;83.91;99058.69;5043662;28;19909;-78
2022/04/01 05:51:42;;;;;;;5.35;2.33;;;;;;;-0.06;84.30;99054.03;5042544;28;20025;-78
2022/04/01 05:54:09;;;;;;;4.40;2.05;;;;;;;-0.12;83.87;99066.13;5042117;28;20037;-79
2022/04/01 05:56:37;;;;;;;7.10;2.17;;;;;;;-0.11;84.48;99066.97;5042100;28;20072;-79
2022/04/01 05:59:03;;;;;;;4.70;1.88;;;;;;;-0.10;83.62;99065.97;5042030;28;20025;-77
2022/04/01 06:02:01;;;;;;;4.80;2.03;;;;;;;-0.15;83.82;99070.94;5024217;28;20411;-78
2022/04/01 06:05:04;;;;;;;6.20;2.47;;;;;;;-0.13;84.21;99079.53;5036976;28;20031;-78
2022/04/01 06:07:51;;;;;;;4.53;2.03;;;;;;;-0.04;84.31;99081.19;5035678;28;20026;-77
2022/04/01 06:10:47;;;;;;;4.45;2.28;;;;;;;-0.07;84.02;99078.88;5036899;28;20029;-78
2022/04/01 06:13:27;;;;;;;4.22;2.28;;;;;;;-0.15;84.41;99084.16;5035230;28;20060;-77
2022/04/01 06:16:16;;;;;;;5.68;2.10;;;;;;;-0.13;84.31;99079.53;5036227;28;20029;-78
2022/04/01 06:18:52;;;;;;;4.72;2.20;;;;;;;-0.19;84.18;99096.94;4976985;28;20101;-77
2022/04/01 06:21:26;;;;;;;4.68;2.10;;;;;;;-0.17;84.09;99091.44;5041828;28;20033;-78
2022/04/01 06:24:24;;;;;;;6.03;2.30;;;;;;;-0.14;84.57;99091.13;5023227;28;20419;-77
2022/04/01 06:27:00;;;;;;;5.60;2.47;;;;;;;-0.14;83.98;99094.59;5041568;28;20333;-78
2022/04/01 06:29:34;;;;;;;4.63;2.25;;;;;;;-0.19;84.26;99096.94;5042737;28;20033;-78
2022/04/01 06:32:05;;;;;;;4.53;1.77;;;;;;;-0.18;84.09;99103.06;5040501;28;20080;-78
2022/04/01 06:34:49;;;;;;;3.28;1.77;;;;;;;-0.18;84.00;99111.00;5036996;28;20102;-77
2022/04/01 06:37:27;;;;;;;5.38;2.42;;;;;;;-0.21;83.81;99108.69;5037369;28;20032;-78
2022/04/01 06:40:10;;;;;;;7.03;2.67;;;;;;;-0.10;84.11;99122.38;5039230;28;20388;-77
2022/04/01 06:42:39;;;;;;;6.68;3.03;;;;;;;-0.10;83.50;99110.97;5035563;28;20029;-79
2022/04/01 06:45:10;;;;;;;17.75;3.22;;;;;;;-0.06;83.50;99129.00;5036958;28;20041;-77
2022/04/01 06:47:41;;;;;;;5.88;2.70;;;;;;;0.00;83.11;99122.22;5039297;28;20021;-77
2022/04/01 06:50:07;;;;;;;6.10;2.80;;;;;;;-0.14;83.19;99131.66;5035200;28;20037;-76
2022/04/01 06:52:33;;;;;;;5.63;2.65;;;;;;;-0.12;83.50;99132.31;5034493;28;20025;-76
2022/04/01 06:54:58;;;;;;;7.82;2.40;;;;;;;-0.07;83.58;99142.41;5034510;28;20030;-76
2022/04/01 06:57:24;;;;;;;6.20;1.92;;;;;;;-0.07;83.31;99135.31;5034224;28;20037;-77
2022/04/01 06:59:50;;;;;;;6.18;3.03;;;;;;;-0.19;83.48;99139.31;5034383;28;20033;-77
2022/04/01 07:02:16;;;;;;;6.15;2.53;;;;;;;-0.16;83.36;99146.88;5035260;28;20141;-78
2022/04/01 07:04:41;;;;;;;7.18;2.92;;;;;;;-0.11;83.33;99152.50;5036799;28;20033;-78
2022/04/01 07:07:08;;;;;;;6.78;2.60;;;;;;;-0.22;82.52;99157.34;5036275;28;20041;-77
2022/04/01 07:09:35;;;;;;;5.30;2.72;;;;;;;-0.14;82.81;99150.19;5035101;28;20119;-76
2022/04/01 07:12:01;;;;;;;6.03;2.45;;;;;;;-0.04;83.09;99153.50;5016207;28;20449;-77
2022/04/01 07:14:27;;;;;;;6.32;2.63;;;;;;;-0.09;83.08;99155.00;5033783;28;20056;-77
2022/04/01 07:16:56;;;;;;;5.78;2.47;;;;;;;-0.01;82.84;99160.28;5035000;28;20037;-76
2022/04/01 07:19:22;;;;;;;4.75;2.28;;;;;;;0.00;82.82;99156.66;5035437;28;20388;-78
2022/04/01 07:21:47;;;;;;;6.25;3.03;;;;;;;0.00;82.29;99159.28;5017398;28;20030;-77
2022/04/01 07:24:13;;;;;;;9.77;4.03;;;;;;;-0.01;82.06;99165.59;5034887;28;20516;-77
2022/04/01 07:26:38;;;;;;;4.43;2.30;;;;;;;-0.02;82.21;99166.56;5034349;28;20025;-77
2022/04/01 07:29:04;;;;;;;7.32;3.40;;;;;;;-0.08;82.66;99169.88;5034522;28;20108;-77
2022/04/01 07:34:21;;;;;;;6.88;2.88;;;;;;;-0.03;82.04;99173.69;5034766;28;20486;-78
2022/04/01 07:36:47;;;;;;;8.10;3.83;;;;;;;-0.04;81.93;99176.50;5034473;28;20044;-77
2022/04/01 07:39:12;;;;;;;7.15;2.88;;;;;;;0.02;81.60;99182.94;5016917;28;20460;-77
2022/04/01 07:41:39;;;;;;;6.28;2.90;;;;;;;0.03;81.55;99180.13;5034334;28;20045;-77
2022/04/01 07:44:04;;;;;;;6.68;2.72;;;;;;;-0.10;81.19;99193.06;5034528;28;20091;-77
2022/04/01 07:46:30;;;;;;;10.32;2.90;;;;;;;-0.05;81.20;99188.09;5034829;28;20041;-77
2022/04/01 07:48:56;;;;;;;6.95;3.28;;;;;;;-0.13;81.42;99198.66;5016489;28;20048;-77
2022/04/01 07:51:21;;;;;;;6.63;2.72;;;;;;;-0.02;82.00;99198.34;5034392;28;20112;-78
2022/04/01 07:53:46;;;;;;;6.25;2.65;;;;;;;0.05;81.33;99194.03;5034737;28;20108;-78
2022/04/01 07:56:11;;;;;;;5.23;2.67;;;;;;;0.01;81.33;99203.28;5034807;28;20029;-78
2022/04/01 07:58:37;;;;;;;13.75;3.42;;;;;;;-0.02;81.59;99203.66;5017163;28;20053;-78
2022/04/01 08:01:03;;;;;;;6.50;2.40;;;;;;;-0.07;80.77;99205.97;5034203;28;20065;-79
2022/04/01 08:03:28;;;;;;;;;;;;;;;-0.04;80.80;99201.16;5034250;28;20447;-77
2022/04/01 08:05:54;;;;;;;4.20;1.55;;;;;;;-0.12;81.02;99219.69;5016130;28;19909;-77
2022/04/01 08:08:20;;;;;;;3.67;1.65;;;;;;;-0.04;80.71;99218.88;5033689;28;20037;-77
2022/04/01 08:10:46;;;;;;;6.90;2.17;;;;;;;-0.07;80.68;99229.78;5033886;28;20175;-77
2022/04/01 08:13:11;;;;;;;4.32;2.28;;;;;;;-0.06;80.64;99223.50;5033410;28;20121;-76
2022/04/01 08:15:37;;;;;;;4.88;2.15;;;;;;;-0.14;79.75;99237.56;5016330;28;20029;-77
2022/04/01 08:18:02;;;;;;;4.72;2.00;;;;;;;-0.12;80.11;99226.81;5016763;28;20041;-78
2022/04/01 08:20:28;;;;;;;4.43;1.75;;;;;;;-0.07;80.33;99227.97;5034211;28;20171;-78
2022/04/01 08:22:53;;;;;;;4.78;2.17;;;;;;;-0.05;80.41;99236.56;5034173;28;20124;-77
2022/04/01 08:25:19;;;;;;;6.00;2.10;;;;;;;-0.03;79.79;99241.72;5034123;28;20025;-78
2022/04/01 08:27:44;;;;;;;4.88;2.00;;;;;;;-0.03;80.42;99249.66;5034489;28;20417;-77
2022/04/01 08:30:10;;;;;;;6.03;2.58;;;;;;;-0.03;79.69;99250.47;5040117;28;20037;-77
2022/04/01 08:32:38;;;;;;;6.20;2.17;;;;;;;0.00;79.42;99249.34;5033973;28;20108;-77
2022/04/01 08:35:07;;;;;;;3.90;1.73;;;;;;;-0.02;79.30;99253.97;5016468;28;20052;-77
2022/04/01 08:37:32;;;;;;;5.05;2.75;;;;;;;0.02;79.33;99257.06;5035921;28;20029;-77
2022/04/01 08:39:58;;;;;;;5.68;1.90;;;;;;;0.04;79.35;99257.75;5038205;28;20064;-76
2022/04/01 08:42:26;;;;;;;4.35;2.08;;;;;;;-0.02;79.03;99257.44;5020431;28;20071;-77
2022/04/01 08:44:51;;;;;;;5.88;2.58;;;;;;;-0.02;79.02;99267.19;5037764;28;20052;-77
2022/04/01 08:47:17;;;;;;;5.80;2.57;;;;;;;0.01;79.04;99274.78;5037396;28;20337;-77
2022/04/01 08:49:42;;;;;;;5.68;2.38;;;;;;;0.06;78.91;99274.28;5037975;28;20264;-77
2022/04/01 08:52:08;;;;;;;5.72;2.72;;;;;;;0.05;79.57;99273.47;5037552;28;20041;-76
2022/04/01 08:54:35;;;;;;;6.60;2.57;;;;;;;0.03;79.06;99279.91;5037325;28;20116;-77
2022/04/01 08:57:01;;;;;;;4.63;2.13;;;;;;;0.02;78.58;99284.38;5037924;28;20267;-77
2022/04/01 08:59:29;;;;;;;;;;;;;;;-0.06;79.00;99284.41;5038013;28;20029;-76
2022/04/01 09:02:07;;;;;;;4.47;2.05;;;;;;;0.07;78.57;99287.38;5036933;28;20031;-77
2022/04/01 09:04:32;;;;;;;4.97;1.85;;;;;;;0.12;78.48;99287.72;5037359;28;20033;-77
2022/04/01 09:07:10;;;;;;;6.18;2.30;;;;;;;0.12;78.33;99290.38;5019488;28;20036;-76
2022/04/01 09:09:35;;;;;;;6.60;2.05;;;;;;;0.07;78.30;99291.84;5036389;28;20037;-76
2022/04/01 09:12:03;;;;;;;3.67;1.85;;;;;;;-0.01;78.32;99293.53;5036371;28;20099;-77
2022/04/01 09:14:29;;;;;;;4.05;1.60;;;;;;;0.10;78.48;99310.06;5036410;28;20491;-75
2022/04/01 09:16:55;;;;;;;4.53;1.73;;;;;;;0.08;77.93;99309.41;5036609;28;20026;-76
2022/04/01 09:19:28;;;;;;;2.85;1.35;;;;;;;0.03;78.07;99304.59;5036789;28;20030;-77
2022/04/01 09:21:54;;;;;;;4.82;2.60;;;;;;;0.02;78.08;99302.94;5036797;28;20029;-77
2022/04/01 09:24:19;;;;;;;4.97;1.70;;;;;;;0.12;77.64;99305.44;5036398;28;20040;-76
2022/04/01 09:26:45;;;;;;;4.70;2.05;;;;;;;0.10;77.82;99307.41;5036081;28;20116;-77
2022/04/01 09:29:11;;;;;;;5.47;1.97;;;;;;;0.06;77.92;99309.56;5018854;28;20057;-76
2022/04/01 09:31:39;;;;;;;3.97;1.50;;;;;;;0.16;77.60;99320.00;5036858;28;20283;-77
2022/04/01 09:34:09;;;;;;;4.18;1.65;;;;;;;0.07;77.33;99315.69;5037111;28;20029;-77
2022/04/01 09:36:37;;;;;;;8.07;2.00;;;;;;;-0.01;77.12;99324.47;5036944;28;20049;-76
2022/04/01 09:39:09;;;;;;;4.28;1.95;;;;;;;-0.03;76.85;99313.22;5018555;28;20080;-75
2022/04/01 09:41:37;;;;;;;3.75;1.90;;;;;;;-0.03;77.24;99324.63;5036273;28;20061;-76
2022/04/01 09:44:20;;;;;;;4.95;1.90;;;;;;;0.01;77.10;99322.44;5035966;28;20468;-76
2022/04/01 09:46:57;;;;;;;3.88;1.88;;;;;;;0.06;76.63;99322.78;5036375;28;20033;-77
2022/04/01 09:49:31;;;;;;;4.80;2.30;;;;;;;0.03;76.41;99331.06;5035916;28;20048;-76
2022/04/01 09:51:57;;;;;;;3.60;1.80;;;;;;;0.10;76.00;99328.59;5036164;28;20112;-76
2022/04/01 09:54:24;;;;;;;6.88;1.73;;;;;;;0.18;75.60;99336.56;5036490;28;20061;-76
2022/04/01 09:56:54;;;;;;;5.03;2.15;;;;;;;0.23;75.75;99343.00;5018501;28;20086;-76
2022/04/01 09:59:21;;;;;;;4.97;2.17;;;;;;;0.20;75.05;99332.72;5018059;28;20030;-76
2022/04/01 10:01:47;;;;;;;5.32;2.10;;;;;;;0.21;74.86;99337.03;5018236;28;20041;-77
2022/04/01 10:04:15;;;;;;;5.45;2.08;;;;;;;0.21;75.42;99331.75;5035567;28;20033;-77
2022/04/01 10:06:42;;;;;;;5.18;2.03;;;;;;;0.26;75.40;99339.19;5036165;28;20096;-76
2022/04/01 10:09:08;;;;;;;;;;;;;;;0.22;75.56;99337.88;5036087;28;20039;-76
2022/04/01 10:11:36;;;;;;;2.78;1.25;;;;;;;0.21;75.90;99339.69;5036271;28;19912;-76
2022/04/01 10:14:08;;;;;;;5.57;2.35;;;;;;;0.18;75.65;99339.22;5035359;28;20405;-76
2022/04/01 10:16:35;;;;;;;4.95;2.60;;;;;;;0.25;76.48;99348.13;5035265;28;20035;-78
2022/04/01 10:19:05;;;;;;;6.43;2.05;;;;;;;0.25;76.22;99346.31;5035792;28;20079;-77
2022/04/01 10:21:31;;;;;;;5.30;2.10;;;;;;;0.25;76.05;99348.97;5035644;28;20373;-76
2022/04/01 10:24:09;;;;;;;4.60;2.08;;;;;;;0.29;76.14;99350.31;5035819;28;20040;-78
2022/04/01 10:26:41;;;;;;;3.67;1.80;;;;;;;0.22;75.91;99361.72;5035663;28;20447;-77
2022/04/01 10:29:07;;;;;;;6.38;1.80;;;;;;;0.23;76.05;99356.25;5035399;28;20120;-78
2022/04/01 10:31:32;;;;;;;;;;;;;;;0.28;75.92;99353.94;5018430;28;20033;-76
2022/04/01 10:34:21;;;;;;;4.72;1.92;;;;;;;0.25;75.88;99359.56;5017580;28;20275;-76
2022/04/01 10:37:01;;;;;;;3.88;1.52;;;;;;;0.27;76.32;99359.41;5036115;28;20069;-78
2022/04/01 10:39:28;;;;;;;6.93;2.00;;;;;;;0.22;75.98;99361.72;5036554;28;20033;-77
2022/04/01 10:42:14;;;;;;;4.32;1.50;;;;;;;0.28;76.01;99361.06;5035656;28;20468;-77
2022/04/01 10:44:54;;;;;;;4.38;1.60;;;;;;;0.31;76.62;99364.22;5034956;28;20041;-76
2022/04/01 10:51:36;;;;;;;3.05;1.90;;;;;;;0.27;76.00;99362.06;5034999;28;20040;-77
2022/04/01 10:53:37;;;;;;;4.57;1.35;;;;;;;0.18;76.65;99374.44;5035366;28;20112;-77
2022/04/01 10:56:23;;;;;;;4.65;1.60;;;;;;;0.22;77.17;99359.88;5035463;28;20033;-77
2022/04/01 10:59:04;;;;;;;6.23;2.13;;;;;;;0.31;77.80;99364.22;5034567;28;20120;-77
2022/04/01 11:01:30;;;;;;;4.30;1.70;;;;;;;0.28;77.39;99369.84;5034154;28;20036;-77
2022/04/01 11:04:08;;;;;;;7.07;2.38;;;;;;;0.39;77.01;99378.44;5034445;28;20030;-79
2022/04/01 11:07:02;;;;;;;6.03;2.08;;;;;;;0.26;77.72;99374.47;5034449;28;20033;-76
2022/04/01 11:09:45;;;;;;;5.60;1.88;;;;;;;0.27;78.37;99377.94;5034799;28;20139;-76
2022/04/01 11:12:19;;;;;;;4.68;1.83;;;;;;;0.27;77.53;99370.81;5034640;28;20095;-76
2022/04/01 11:14:53;;;;;;;4.97;1.88;;;;;;;0.30;78.36;99383.75;5034029;28;20054;-76
2022/04/01 11:17:39;;;;;;;3.83;1.70;;;;;;;0.27;78.74;99384.06;5034461;28;20083;-77
2022/04/01 11:20:32;;;;;;;4.32;1.50;;;;;;;0.13;79.85;99376.78;5009209;28;20391;-76
2022/04/01 11:22:59;;;;;;;5.43;2.20;;;;;;;0.13;79.91;99389.19;5034648;28;20047;-77
2022/04/01 11:25:24;;;;;;;4.47;2.28;;;;;;;0.08;81.17;99379.09;5034522;28;20472;-77
2022/04/01 11:28:01;;;;;;;7.63;1.87;;;;;;;0.09;80.72;99380.75;5034995;28;20048;-76
2022/04/01 11:30:28;;;;;;;;;;;;;;;0.16;81.12;99388.88;5035667;28;20033;-78
2022/04/01 11:32:57;;;;;;;3.40;1.92;;;;;;;0.15;81.24;99393.34;5035085;28;19920;-77
2022/04/01 11:35:25;;;;;;;3.60;1.80;;;;;;;0.07;81.77;99393.31;5035679;28;20091;-77
2022/04/01 11:37:51;;;;;;;4.75;2.20;;;;;;;0.10;82.37;99390.34;5034819;28;20029;-77
2022/04/01 11:40:19;;;;;;;4.57;2.10;;;;;;;0.19;82.27;99397.28;5034372;28;20116;-77
2022/04/01 11:42:57;;;;;;;4.70;2.15;;;;;;;0.15;82.45;99398.63;5033843;28;20041;-78
2022/04/01 11:45:23;;;;;;;4.65;2.00;;;;;;;0.20;82.05;99400.78;5034179;28;20025;-77
2022/04/01 11:47:49;;;;;;;6.10;2.22;;;;;;;0.23;82.28;99393.34;5034140;28;20036;-77
2022/04/01 11:50:17;;;;;;;5.28;1.92;;;;;;;0.19;82.66;99394.66;5033844;28;20030;-76
2022/04/01 11:52:48;;;;;;;4.95;2.20;;;;;;;0.09;83.03;99401.09;5033648;28;20403;-77
2022/04/01 11:55:20;;;;;;;4.78;2.00;;;;;;;0.11;84.40;99402.59;5033912;28;20476;-76
2022/04/01 11:57:47;;;;;;;5.40;2.17;;;;;;;0.28;83.90;99400.81;5034458;28;20029;-76
2022/04/01 12:00:15;;;;;;;5.28;2.00;;;;;;;0.05;85.13;99415.66;5033817;28;20025;-76
2022/04/01 12:02:41;;;;;;;3.58;2.20;;;;;;;-0.09;86.43;99417.94;5033652;28;20417;-76
2022/04/01 12:05:08;;;;;;;5.47;2.38;;;;;;;-0.08;86.62;99421.41;5033849;28;20484;-77